Time;durP1;ratioP1;P1;durP2;ratioP2;P2;SDS_P1;SDS_P2;PMS_P1;PMS_P2;Temp;Humidity;BMP_temperature;BMP_pressure;BME280_temperature;BME280_humidity;BME280_pressure;Samples;Min_cycle;Max_cycle;Signal;HPM_P1;HPM_P2
2022/01/31 00:01:31;;;;;;;;;7.00;7.00;;;;;8.41;57.60;102146.31;5072155;28;49898;-71
2022/01/31 00:03:56;;;;;;;;;8.00;6.00;;;;;8.17;57.84;102091.84;5070011;28;49838;-71
2022/01/31 00:06:21;;;;;;;;;10.50;8.00;;;;;8.29;58.51;102139.56;5072032;27;49672;-72
2022/01/31 00:08:48;;;;;;;;;7.25;7.25;;;;;8.02;58.23;102060.59;5070434;28;51454;-71
2022/01/31 00:11:13;;;;;;;;;6.25;6.25;;;;;8.25;57.76;102089.63;5071989;28;49649;-71
2022/01/31 00:13:43;;;;;;;;;11.00;8.00;;;;;8.35;58.11;102102.41;5070609;28;49714;-72
2022/01/31 00:16:14;;;;;;;;;8.25;7.00;;;;;8.52;58.56;102113.72;5071850;28;49937;-72
2022/01/31 00:18:40;;;;;;;;;8.50;7.25;;;;;8.43;58.02;102097.56;5071691;28;49994;-71
2022/01/31 00:21:06;;;;;;;;;8.00;8.00;;;;;8.22;57.79;102061.59;5071685;27;49667;-72
2022/01/31 00:23:31;;;;;;;;;11.00;9.00;;;;;8.23;58.91;102070.34;5069960;28;49786;-72
2022/01/31 00:25:57;;;;;;;;;9.00;7.75;;;;;8.16;58.90;102082.22;5070654;28;49907;-72
2022/01/31 00:28:22;;;;;;;;;7.50;7.50;;;;;8.04;58.02;102056.31;5071515;28;51149;-71
2022/01/31 00:30:47;;;;;;;;;13.50;10.50;;;;;8.04;59.06;102055.44;5071230;28;49562;-72
2022/01/31 00:33:13;;;;;;;;;11.50;7.25;;;;;8.22;59.32;102077.31;5071670;28;49793;-72
2022/01/31 00:35:38;;;;;;;;;6.75;6.75;;;;;8.28;58.97;102093.28;5071821;28;49688;-73
2022/01/31 00:38:04;;;;;;;;;10.25;7.25;;;;;8.22;59.72;102079.91;5071422;28;50542;-71
2022/01/31 00:40:29;;;;;;;;;6.50;6.00;;;;;8.19;59.01;102060.53;5071411;28;49768;-71
2022/01/31 00:42:55;;;;;;;;;10.00;8.00;;;;;8.22;59.64;102076.41;5071706;28;50287;-71
2022/01/31 00:45:26;;;;;;;;;10.00;9.25;;;;;8.27;59.55;102088.00;5070073;28;49974;-70
2022/01/31 00:48:01;;;;;;;;;8.25;7.75;;;;;8.35;59.56;102088.41;5069761;28;50772;-73
2022/01/31 00:50:36;;;;;;;;;12.75;8.00;;;;;8.49;59.50;102098.78;5065002;28;49715;-73
2022/01/31 00:53:02;;;;;;;;;5.00;4.75;;;;;8.31;58.97;102055.94;5071330;28;49723;-71
2022/01/31 00:55:27;;;;;;;;;8.00;6.00;;;;;8.32;59.13;102062.97;5071553;27;49835;-73
2022/01/31 00:57:52;;;;;;;;;10.00;7.25;;;;;8.46;58.68;102088.13;5069714;28;50391;-74
2022/01/31 01:00:18;;;;;;;;;6.00;5.50;;;;;8.40;59.07;102045.09;5070962;27;49779;-72
2022/01/31 01:02:44;;;;;;;;;7.75;6.50;;;;;8.52;59.14;102064.91;5071435;27;50220;-72
2022/01/31 01:05:10;;;;;;;;;6.75;4.25;;;;;8.53;58.62;102068.41;5071249;28;50064;-72
2022/01/31 01:07:36;;;;;;;;;7.00;7.00;;;;;8.46;58.60;102041.03;5069664;28;51439;-75
2022/01/31 01:10:03;;;;;;;;;9.50;6.50;;;;;8.55;59.31;102054.56;5070343;28;49763;-72
2022/01/31 01:12:28;;;;;;;;;2.00;2.00;;;;;8.55;58.60;102049.34;5071032;28;50041;-75
2022/01/31 01:14:53;;;;;;;;;3.25;3.25;;;;;8.51;58.86;102029.09;5069720;28;49778;-71
2022/01/31 01:17:19;;;;;;;;;7.50;4.25;;;;;8.50;58.80;102008.97;5069179;28;50893;-73
2022/01/31 01:19:44;;;;;;;;;3.75;3.75;;;;;8.54;58.73;102026.59;5071105;28;49951;-74
2022/01/31 01:22:10;;;;;;;;;4.75;3.00;;;;;8.57;57.88;102021.50;5070945;28;49725;-75
2022/01/31 01:24:36;;;;;;;;;7.00;5.50;;;;;8.60;58.42;102020.78;5073246;28;49570;-72
2022/01/31 01:27:01;;;;;;;;;4.25;4.25;;;;;8.47;58.68;101973.88;5071612;28;50307;-73
2022/01/31 01:29:27;;;;;;;;;4.00;2.00;;;;;8.50;59.13;101956.63;5070573;27;49640;-72
2022/01/31 01:31:52;;;;;;;;;5.75;5.75;;;;;8.34;58.57;101938.34;5070811;27;49767;-71
2022/01/31 01:34:20;;;;;;;;;2.00;2.00;;;;;8.33;58.64;101929.59;5071006;27;49732;-75
2022/01/31 01:36:46;;;;;;;;;4.25;2.00;;;;;8.28;59.39;101917.13;5069220;28;52394;-72
2022/01/31 01:39:12;;;;;;;;;5.75;4.00;;;;;8.11;59.51;101892.78;5070746;28;49656;-72
2022/01/31 01:41:38;;;;;;;;;3.50;2.75;;;;;8.28;59.68;101928.47;5070613;28;50014;-76
2022/01/31 01:44:04;;;;;;;;;10.50;4.75;;;;;8.39;59.80;101938.59;5069292;28;49628;-77
2022/01/31 01:46:29;;;;;;;;;7.75;5.75;;;;;8.28;59.28;101920.63;5070682;27;49890;-76
2022/01/31 01:48:54;;;;;;;;;7.50;5.00;;;;;8.30;60.34;101918.09;5069079;28;49873;-72
2022/01/31 01:51:20;;;;;;;;;6.75;6.75;;;;;8.37;60.30;101938.53;5070675;28;49561;-71
2022/01/31 01:53:45;;;;;;;;;5.25;5.25;;;;;8.32;60.55;101917.34;5069508;28;49938;-71
2022/01/31 01:56:11;;;;;;;;;7.75;3.50;;;;;8.41;60.40;101950.06;5070156;28;50290;-71
2022/01/31 01:58:41;;;;;;;;;2.25;2.00;;;;;8.33;60.71;101934.84;5063985;28;49966;-71
2022/01/31 02:01:08;;;;;;;;;5.75;5.75;;;;;8.49;61.18;101959.16;5063958;28;49975;-71
2022/01/31 02:03:36;;;;;;;;;7.25;5.00;;;;;8.46;60.96;101949.44;5064285;28;49982;-71
2022/01/31 02:06:03;;;;;;;;;4.00;4.00;;;;;8.36;60.80;101921.03;5063434;28;50765;-71
2022/01/31 02:08:29;;;;;;;;;2.25;2.25;;;;;8.28;61.12;101901.41;5069078;28;49874;-70
2022/01/31 02:10:55;;;;;;;;;6.25;3.00;;;;;8.30;60.78;101892.84;5070331;27;49639;-70
2022/01/31 02:13:20;;;;;;;;;7.00;6.00;;;;;8.36;60.31;101899.22;5070450;28;49934;-71
2022/01/31 02:15:49;;;;;;;;;1.25;1.25;;;;;8.47;61.26;101898.88;5068545;28;51672;-70
2022/01/31 02:18:16;;;;;;;;;5.75;3.50;;;;;8.32;61.18;101875.50;5070172;28;49587;-72
2022/01/31 02:20:42;;;;;;;;;3.00;3.00;;;;;8.46;62.07;101901.44;5071056;27;49718;-71
2022/01/31 02:23:10;;;;;;;;;4.75;3.00;;;;;8.38;62.32;101889.69;5074067;28;49820;-71
2022/01/31 02:26:03;;;;;;;;;8.50;6.00;;;;;8.28;63.05;101870.91;5073359;28;50029;-70
2022/01/31 02:28:31;;;;;;;;;6.50;2.00;;;;;8.43;63.32;101898.69;5073544;27;49831;-71
2022/01/31 02:30:57;;;;;;;;;2.25;2.25;;;;;8.13;63.62;101828.34;5073539;28;49860;-71
2022/01/31 02:33:23;;;;;;;;;4.00;3.00;;;;;8.36;64.20;101855.63;5073948;28;49677;-70
2022/01/31 02:35:51;;;;;;;;;6.25;3.75;;;;;8.17;64.49;101829.38;5073275;28;49832;-70
2022/01/31 02:38:17;;;;;;;;;5.75;5.00;;;;;8.39;64.15;101873.19;5072178;28;49842;-71
2022/01/31 02:40:42;;;;;;;;;4.25;4.00;;;;;8.26;64.18;101856.88;5073617;28;49918;-71
2022/01/31 02:43:08;;;;;;;;;6.50;4.75;;;;;8.30;64.96;101853.59;5073528;27;49829;-72
2022/01/31 02:45:33;;;;;;;;;3.75;3.50;;;;;8.30;64.53;101856.22;5073258;28;50725;-71
2022/01/31 02:48:01;;;;;;;;;5.25;3.50;;;;;8.45;63.84;101865.63;5071972;28;49809;-72
2022/01/31 02:50:27;;;;;;;;;7.75;2.50;;;;;8.18;63.95;101805.00;5073205;28;49727;-72
2022/01/31 02:53:10;;;;;;;;;7.25;5.50;;;;;8.47;64.52;101853.50;5073625;27;50036;-71
2022/01/31 02:55:40;;;;;;;;;5.50;3.00;;;;;8.48;64.26;101861.41;5068652;28;50890;-71
2022/01/31 02:58:06;;;;;;;;;3.00;3.00;;;;;8.41;64.90;101840.16;5071841;28;49710;-72
2022/01/31 03:00:32;;;;;;;;;2.75;2.75;;;;;8.44;64.86;101843.81;5073051;28;49846;-71
2022/01/31 03:02:57;;;;;;;;;4.75;2.25;;;;;8.38;65.40;101821.69;5072062;28;49997;-72
2022/01/31 03:05:23;;;;;;;;;3.00;1.75;;;;;8.38;65.84;101808.59;5072827;27;50762;-72
2022/01/31 03:07:48;;;;;;;;;2.25;2.25;;;;;8.21;65.63;101781.66;5073204;28;49731;-71
2022/01/31 03:10:13;;;;;;;;;6.50;2.75;;;;;8.23;66.31;101774.75;5073228;28;49998;-73
2022/01/31 03:12:39;;;;;;;;;2.00;2.00;;;;;8.13;67.40;101752.50;5073408;28;50008;-72
2022/01/31 03:15:04;;;;;;;;;3.25;2.50;;;;;8.17;67.74;101764.88;5071173;28;52632;-72
2022/01/31 03:17:30;;;;;;;;;1.25;1.00;;;;;8.00;67.60;101732.72;5072793;28;49756;-72
2022/01/31 03:19:55;;;;;;;;;2.75;2.00;;;;;8.10;67.54;101773.25;5072970;28;49676;-73
2022/01/31 03:22:22;;;;;;;;;2.25;2.25;;;;;8.22;67.48;101793.88;5072930;28;50076;-72
2022/01/31 03:24:48;;;;;;;;;7.75;3.00;;;;;8.24;68.48;101789.63;5072770;28;50733;-73
2022/01/31 03:27:15;;;;;;;;;5.50;2.25;;;;;8.18;67.76;101792.84;5072845;27;49820;-71
2022/01/31 03:29:40;;;;;;;;;3.25;2.25;;;;;8.11;68.59;101766.34;5070948;28;50016;-73
2022/01/31 03:32:06;;;;;;;;;5.50;3.50;;;;;8.14;68.80;101766.47;5072334;27;49683;-72
2022/01/31 03:34:32;;;;;;;;;6.25;2.25;;;;;8.38;68.98;101799.03;5071032;28;50856;-72
2022/01/31 03:36:57;;;;;;;;;3.00;2.50;;;;;8.15;68.55;101748.22;5071100;28;49846;-71
2022/01/31 03:39:23;;;;;;;;;1.50;0.25;;;;;8.11;70.13;101729.72;5072678;28;50100;-71
2022/01/31 03:41:48;;;;;;;;;1.25;1.00;;;;;8.29;70.71;101754.09;5072881;28;49858;-72
2022/01/31 03:44:13;;;;;;;;;4.00;2.75;;;;;8.38;70.68;101765.00;5072092;28;50033;-71
2022/01/31 03:46:39;;;;;;;;;3.75;2.25;;;;;8.48;70.96;101784.63;5072320;28;49967;-72
2022/01/31 03:49:04;;;;;;;;;1.00;1.00;;;;;8.34;71.37;101755.22;5071047;28;50109;-71
2022/01/31 03:51:30;;;;;;;;;1.75;1.75;;;;;8.27;71.58;101763.59;5072690;28;49739;-73
2022/01/31 03:53:56;;;;;;;;;6.00;4.00;;;;;8.37;72.28;101765.84;5071000;28;51614;-71
2022/01/31 03:56:21;;;;;;;;;5.50;4.00;;;;;8.40;72.50;101747.69;5072254;27;49905;-71
2022/01/31 03:58:46;;;;;;;;;4.50;2.75;;;;;8.47;73.40;101785.47;5072040;28;49911;-73
2022/01/31 04:01:12;;;;;;;;;2.00;2.00;;;;;8.21;72.68;101752.88;5070627;28;50131;-72
2022/01/31 04:03:37;;;;;;;;;1.25;1.00;;;;;8.29;73.82;101761.94;5071936;28;49673;-75
2022/01/31 04:06:03;;;;;;;;;3.25;2.00;;;;;7.84;73.98;101679.66;5072168;27;49960;-74
2022/01/31 04:08:28;;;;;;;;;1.00;1.00;;;;;8.25;74.61;101762.63;5072240;28;49672;-71
2022/01/31 04:10:53;;;;;;;;;6.50;2.75;;;;;8.28;74.41;101766.28;5072486;28;50155;-74
2022/01/31 04:13:19;;;;;;;;;2.25;2.25;;;;;8.18;74.75;101743.13;5071789;27;50953;-72
2022/01/31 04:15:45;;;;;;;;;2.25;1.00;;;;;8.41;74.19;101775.63;5070152;28;49831;-74
2022/01/31 04:18:11;;;;;;;;;2.75;2.25;;;;;8.35;74.30;101777.06;5070434;28;49778;-73
2022/01/31 04:20:37;;;;;;;;;2.25;1.00;;;;;8.38;74.30;101771.97;5070673;28;50005;-71
2022/01/31 04:23:12;;;;;;;;;0.75;0.75;;;;;8.42;74.64;101766.06;5071834;28;50553;-71
2022/01/31 04:28:16;;;;;;;;;2.00;1.00;;;;;8.26;74.43;101760.09;5071722;28;49864;-71
2022/01/31 04:30:51;;;;;;;;;1.00;1.00;;;;;8.52;74.08;101787.47;5050553;28;50177;-71
2022/01/31 04:33:17;;;;;;;;;2.50;1.50;;;;;8.11;74.06;101706.19;5065881;28;49844;-70
2022/01/31 04:35:42;;;;;;;;;1.25;0.75;;;;;8.52;74.16;101790.09;5071670;28;49762;-70
2022/01/31 04:38:08;;;;;;;;;2.75;2.75;;;;;8.38;74.42;101765.00;5071779;28;49609;-74
2022/01/31 04:40:33;;;;;;;;;2.00;2.00;;;;;8.50;74.61;101775.16;5065121;28;49662;-70
2022/01/31 04:42:59;;;;;;;;;2.50;2.00;;;;;7.81;73.97;101662.09;5071520;28;50826;-70
2022/01/31 04:45:24;;;;;;;;;0.00;0.00;;;;;8.38;75.41;101765.00;5070361;28;49711;-70
2022/01/31 04:47:50;;;;;;;;;1.50;1.50;;;;;8.49;74.38;101769.03;5071636;27;50406;-71
2022/01/31 04:50:15;;;;;;;;;0.00;0.00;;;;;8.47;74.34;101757.56;5070313;28;49783;-70
2022/01/31 04:52:42;;;;;;;;;2.25;1.00;;;;;8.56;74.54;101768.47;5071222;28;51229;-71
2022/01/31 04:55:09;;;;;;;;;1.25;1.25;;;;;8.60;73.87;101780.88;5070046;28;49793;-71
2022/01/31 04:57:34;;;;;;;;;1.00;1.00;;;;;8.53;73.72;101772.66;5071421;28;49660;-71
2022/01/31 05:00:00;;;;;;;;;1.00;1.00;;;;;8.60;73.07;101820.13;5069843;28;49749;-70
2022/01/31 05:02:26;;;;;;;;;1.00;1.00;;;;;8.44;72.63;101786.22;5071077;28;49845;-71
2022/01/31 05:04:51;;;;;;;;;3.00;1.00;;;;;8.44;72.65;101778.38;5071126;27;49752;-71
2022/01/31 05:07:17;;;;;;;;;1.25;1.25;;;;;8.62;70.86;101835.00;5071265;28;49656;-71
2022/01/31 05:09:44;;;;;;;;;1.00;1.00;;;;;8.55;70.42;101813.78;5070062;27;49719;-70
2022/01/31 05:12:10;;;;;;;;;2.00;0.00;;;;;8.21;70.66;101763.34;5071027;28;50891;-70
2022/01/31 05:14:35;;;;;;;;;1.00;1.00;;;;;8.45;69.36;101808.94;5069460;28;49770;-71
2022/01/31 05:17:00;;;;;;;;;0.00;0.00;;;;;8.14;69.03;101740.31;5071382;28;50193;-70
2022/01/31 05:19:26;;;;;;;;;3.75;3.75;;;;;8.58;69.65;101823.47;5071176;28;49732;-72
2022/01/31 05:21:51;;;;;;;;;1.75;1.75;;;;;8.41;68.71;101785.22;5070861;28;49774;-71
2022/01/31 05:24:16;;;;;;;;;1.00;1.00;;;;;8.60;68.84;101808.78;5069415;28;50181;-70
2022/01/31 05:26:42;;;;;;;;;1.25;1.25;;;;;8.17;68.61;101748.31;5071185;28;49549;-71
2022/01/31 05:29:07;;;;;;;;;1.00;1.00;;;;;8.69;68.23;101835.38;5069489;28;49823;-71
2022/01/31 05:31:32;;;;;;;;;0.00;0.00;;;;;8.50;66.94;101783.91;5069472;28;52321;-71
2022/01/31 05:33:58;;;;;;;;;2.00;1.00;;;;;8.67;65.53;101826.53;5071027;27;49740;-71
2022/01/31 05:36:24;;;;;;;;;3.00;1.75;;;;;8.48;65.46;101809.09;5071138;27;49803;-71
2022/01/31 05:38:49;;;;;;;;;2.00;2.00;;;;;8.44;65.18;101799.31;5069738;28;49772;-72
2022/01/31 05:41:19;;;;;;;;;0.75;0.75;;;;;8.48;64.83;101810.81;5069230;28;51169;-69
2022/01/31 05:43:47;;;;;;;;;3.00;0.00;;;;;8.55;65.00;101829.47;5070576;27;49662;-70
2022/01/31 05:46:12;;;;;;;;;2.00;1.00;;;;;8.53;65.32;101820.66;5069382;28;49944;-69
2022/01/31 05:48:38;;;;;;;;;1.75;1.75;;;;;8.54;64.16;101817.22;5070745;28;49894;-69
2022/01/31 05:51:08;;;;;;;;;5.00;1.50;;;;;8.44;64.40;101824.59;5070538;28;50969;-69
2022/01/31 05:53:34;;;;;;;;;2.00;1.00;;;;;8.28;64.83;101796.78;5070744;28;49773;-70
2022/01/31 05:55:59;;;;;;;;;1.25;1.25;;;;;8.52;64.48;101834.59;5071922;27;49616;-69
2022/01/31 05:58:25;;;;;;;;;4.00;2.50;;;;;8.37;65.46;101802.47;5073087;28;49601;-69
2022/01/31 06:00:50;;;;;;;;;2.00;2.00;;;;;8.25;64.90;101781.84;5073821;27;50617;-71
2022/01/31 06:03:16;;;;;;;;;3.75;1.25;;;;;8.28;65.06;101788.94;5074067;28;49597;-70
2022/01/31 06:05:41;;;;;;;;;4.00;2.75;;;;;8.34;64.38;101804.91;5074001;28;49913;-70
2022/01/31 06:08:07;;;;;;;;;1.00;1.00;;;;;8.27;64.16;101808.97;5072728;28;50111;-69
2022/01/31 06:10:34;;;;;;;;;2.50;2.50;;;;;7.77;64.35;101737.69;5073902;28;49836;-70
2022/01/31 06:12:59;;;;;;;;;2.00;1.75;;;;;8.28;64.53;101836.91;5073956;27;49717;-71
2022/01/31 06:15:24;;;;;;;;;2.25;2.00;;;;;8.28;63.78;101833.41;5073742;27;49953;-70
2022/01/31 06:17:50;;;;;;;;;1.75;1.75;;;;;8.21;64.19;101840.09;5074195;28;49728;-70
2022/01/31 06:20:15;;;;;;;;;5.00;2.25;;;;;8.11;64.55;101829.13;5072370;28;52185;-70
2022/01/31 06:22:46;;;;;;;;;1.00;1.00;;;;;8.11;64.76;101837.84;5073725;28;50005;-71
2022/01/31 06:25:12;;;;;;;;;2.75;2.25;;;;;7.99;64.12;101798.91;5073721;28;49592;-73
2022/01/31 06:27:37;;;;;;;;;0.25;0.25;;;;;8.13;63.96;101815.28;5073994;27;50065;-70
2022/01/31 06:30:03;;;;;;;;;2.75;2.75;;;;;8.06;63.73;101817.53;5073468;28;51024;-72
2022/01/31 06:32:29;;;;;;;;;1.75;0.75;;;;;8.11;63.61;101829.13;5073921;28;50245;-72
2022/01/31 06:34:55;;;;;;;;;0.75;0.50;;;;;8.03;64.04;101824.41;5072291;28;49792;-70
2022/01/31 06:37:20;;;;;;;;;1.50;1.50;;;;;7.91;63.80;101799.38;5076653;28;49721;-71
2022/01/31 06:39:46;;;;;;;;;6.50;2.00;;;;;7.93;63.22;101808.22;5073436;28;50483;-70
2022/01/31 06:42:12;;;;;;;;;1.50;1.50;;;;;7.90;62.85;101810.66;5073373;28;49834;-72
2022/01/31 06:44:39;;;;;;;;;1.00;1.00;;;;;7.82;62.63;101796.34;5072120;28;49893;-71
2022/01/31 06:47:05;;;;;;;;;1.25;1.00;;;;;7.98;62.73;101841.56;5085189;27;49763;-71
2022/01/31 06:49:30;;;;;;;;;1.00;1.00;;;;;7.93;62.97;101848.31;5078420;27;49705;-73
2022/01/31 06:51:55;;;;;;;;;1.75;1.00;;;;;7.86;63.58;101833.16;5071830;28;49765;-69
2022/01/31 06:54:21;;;;;;;;;0.50;0.50;;;;;8.04;62.95;101860.19;5071966;28;49833;-73
2022/01/31 06:56:47;;;;;;;;;1.00;1.00;;;;;7.66;61.56;101802.53;5073824;28;49957;-73
2022/01/31 06:59:12;;;;;;;;;2.25;1.25;;;;;7.83;61.54;101821.66;5072565;27;49795;-72
2022/01/31 07:01:37;;;;;;;;;1.25;0.50;;;;;7.83;63.06;101840.84;5073244;28;49655;-70
2022/01/31 07:04:03;;;;;;;;;2.25;2.25;;;;;7.87;61.89;101855.84;5073111;28;50362;-74
2022/01/31 07:06:28;;;;;;;;;3.50;2.25;;;;;7.76;62.36;101859.66;5071634;28;49955;-76
2022/01/31 07:08:53;;;;;;;;;2.25;1.25;;;;;7.76;62.15;101867.50;5071766;28;50958;-73
2022/01/31 07:11:25;;;;;;;;;1.25;1.00;;;;;7.94;61.36;101873.63;5072182;28;49617;-74
2022/01/31 07:14:01;;;;;;;;;4.50;2.50;;;;;7.78;62.74;101838.81;5079287;27;49743;-73
2022/01/31 07:16:27;;;;;;;;;2.50;1.00;;;;;7.85;62.70;101865.34;5077976;27;49658;-70
2022/01/31 07:18:59;;;;;;;;;1.00;1.00;;;;;7.75;62.15;101860.47;5072734;28;50010;-69
2022/01/31 07:21:32;;;;;;;;;2.50;0.00;;;;;7.91;61.72;101889.19;5072906;28;49743;-70
2022/01/31 07:26:43;;;;;;;;;1.00;1.00;;;;;7.82;61.54;101886.13;5067202;28;49715;-69
2022/01/31 07:29:08;;;;;;;;;2.75;1.25;;;;;7.70;62.46;101867.19;5072375;28;50572;-68
2022/01/31 07:31:35;;;;;;;;;3.00;3.00;;;;;7.96;63.21;101902.47;5071315;28;49742;-73
2022/01/31 07:34:00;;;;;;;;;10.25;2.75;;;;;7.81;62.02;101875.56;5066124;28;49650;-72
2022/01/31 07:36:25;;;;;;;;;2.50;2.00;;;;;8.10;62.89;101900.53;5071687;28;49990;-74
2022/01/31 07:38:51;;;;;;;;;1.25;1.00;;;;;8.05;63.03;101884.63;5072940;27;51154;-70
2022/01/31 07:41:16;;;;;;;;;2.75;1.50;;;;;8.22;62.05;101895.91;5072919;27;49847;-71
2022/01/31 07:43:43;;;;;;;;;2.25;2.00;;;;;8.36;61.71;101917.53;5072010;27;49691;-71
2022/01/31 07:46:11;;;;;;;;;1.00;1.00;;;;;8.14;61.74;101879.84;5074196;27;49946;-79
2022/01/31 07:48:36;;;;;;;;;1.25;1.25;;;;;8.10;60.12;101872.66;5073527;28;50860;-74
2022/01/31 07:51:02;;;;;;;;;1.75;1.00;;;;;8.39;61.10;101909.81;5072368;28;49834;-73
2022/01/31 07:53:27;;;;;;;;;2.50;0.25;;;;;8.53;60.50;101903.53;5077980;28;49704;-73
2022/01/31 07:55:53;;;;;;;;;3.00;2.00;;;;;8.44;60.54;101914.44;5071364;27;49789;-71
2022/01/31 07:58:20;;;;;;;;;2.00;2.00;;;;;8.51;60.68;101924.41;5071274;28;50789;-71
2022/01/31 08:00:45;;;;;;;;;2.25;2.25;;;;;8.42;60.32;101908.25;5071398;28;49753;-72
2022/01/31 08:03:11;;;;;;;;;1.50;1.50;;;;;8.52;60.25;101938.38;5071895;28;49593;-71
2022/01/31 08:05:36;;;;;;;;;2.25;0.00;;;;;8.47;60.00;101935.53;5071931;27;49791;-71
2022/01/31 08:08:02;;;;;;;;;1.00;1.00;;;;;8.54;60.24;101937.63;5070167;28;50727;-71
2022/01/31 08:10:27;;;;;;;;;1.75;1.75;;;;;8.69;60.12;101953.16;5071912;28;49849;-71
2022/01/31 08:12:55;;;;;;;;;6.00;3.25;;;;;8.66;60.32;101941.63;5072477;28;49990;-72
2022/01/31 08:15:25;;;;;;;;;2.50;2.00;;;;;8.71;60.47;101946.28;5070428;28;50119;-72
2022/01/31 08:17:50;;;;;;;;;0.25;0.25;;;;;8.67;59.70;101932.97;5071871;28;49991;-72
2022/01/31 08:20:16;;;;;;;;;2.50;1.00;;;;;8.89;59.31;101960.22;5071546;28;49858;-72
2022/01/31 08:22:41;;;;;;;;;0.25;0.25;;;;;8.38;59.39;101866.16;5071937;28;49597;-72
2022/01/31 08:25:13;;;;;;;;;2.00;2.00;;;;;8.26;59.55;101850.75;5070617;28;49826;-72
2022/01/31 08:27:40;;;;;;;;;3.50;2.50;;;;;9.01;59.51;101959.91;5071739;28;50002;-74
2022/01/31 08:30:11;;;;;;;;;1.50;1.00;;;;;8.94;59.03;101946.44;5071470;28;49676;-74
2022/01/31 08:32:44;;;;;;;;;2.00;1.00;;;;;8.99;59.73;101947.56;5071580;28;49819;-75
2022/01/31 08:37:54;;;;;;;;;1.75;1.75;;;;;9.03;59.55;101959.97;5071421;28;49696;-73
2022/01/31 08:40:20;;;;;;;;;1.00;1.00;;;;;9.00;59.27;101945.00;5071862;28;49980;-73
2022/01/31 08:42:45;;;;;;;;;4.75;3.25;;;;;9.12;59.48;101942.06;5070021;28;49835;-73
2022/01/31 08:45:11;;;;;;;;;3.25;1.00;;;;;8.55;59.42;101834.72;5070206;28;50014;-73
2022/01/31 08:47:42;;;;;;;;;2.50;2.50;;;;;8.96;59.14;101914.25;5071389;28;50609;-74
2022/01/31 08:50:09;;;;;;;;;6.25;3.00;;;;;9.05;59.54;101945.22;5071234;28;49696;-74
2022/01/31 08:52:35;;;;;;;;;4.25;3.00;;;;;8.87;58.97;101922.59;5071351;28;49833;-72
2022/01/31 08:55:01;;;;;;;;;1.25;1.25;;;;;9.09;58.41;101961.16;5071479;28;49867;-72
2022/01/31 08:57:27;;;;;;;;;1.75;1.75;;;;;9.12;57.94;101963.91;5070014;28;50516;-75
2022/01/31 08:59:52;;;;;;;;;1.00;0.25;;;;;9.09;58.40;101948.06;5071018;28;49693;-72
2022/01/31 09:02:25;;;;;;;;;2.00;2.00;;;;;9.08;57.74;101927.03;5071422;28;49755;-73
2022/01/31 09:04:52;;;;;;;;;5.25;4.00;;;;;9.39;57.35;101969.50;5071127;28;49739;-75
2022/01/31 09:07:20;;;;;;;;;1.00;1.00;;;;;9.39;57.77;101932.81;5071028;27;49979;-72
2022/01/31 09:09:52;;;;;;;;;3.00;1.00;;;;;9.33;57.13;101892.31;5071012;27;49616;-72
2022/01/31 09:12:18;;;;;;;;;4.75;3.25;;;;;9.58;56.13;101950.25;5071652;28;49916;-72
2022/01/31 09:14:45;;;;;;;;;3.25;3.25;;;;;9.51;56.02;101957.75;5071037;28;50018;-72
2022/01/31 09:17:10;;;;;;;;;3.00;3.00;;;;;9.59;56.77;101948.50;5070934;28;49775;-74
2022/01/31 09:19:36;;;;;;;;;3.50;2.50;;;;;9.50;56.35;101927.13;5069616;28;49812;-74
2022/01/31 09:22:01;;;;;;;;;2.75;2.25;;;;;9.65;55.83;101940.91;5070978;28;49812;-72
2022/01/31 09:24:29;;;;;;;;;3.75;3.25;;;;;9.37;56.36;101913.50;5069709;28;49504;-73
2022/01/31 09:26:54;;;;;;;;;1.25;1.25;;;;;9.69;55.84;101971.69;5069213;28;50000;-72
2022/01/31 09:29:19;;;;;;;;;2.25;2.25;;;;;9.55;55.42;101934.34;5070666;28;49728;-74
2022/01/31 09:31:45;;;;;;;;;2.00;2.00;;;;;9.61;55.30;101952.09;5070160;28;49780;-72
2022/01/31 09:34:11;;;;;;;;;3.25;2.00;;;;;9.53;55.22;101927.25;5069831;28;49821;-71
2022/01/31 09:36:36;;;;;;;;;3.50;2.25;;;;;9.68;55.32;101923.59;5070814;28;49892;-73
2022/01/31 09:39:02;;;;;;;;;5.75;1.25;;;;;9.99;55.32;101952.00;5070619;28;49735;-74
2022/01/31 09:41:28;;;;;;;;;0.50;0.50;;;;;9.93;53.95;101940.34;5071097;28;49933;-74
2022/01/31 09:44:15;;;;;;;;;1.25;1.25;;;;;10.07;54.00;101964.56;5064253;28;49863;-72
2022/01/31 09:46:48;;;;;;;;;5.00;0.25;;;;;9.91;53.76;101942.00;5052016;28;52304;-72
2022/01/31 09:49:15;;;;;;;;;3.00;1.50;;;;;9.96;53.36;101948.38;5069119;28;49864;-72
2022/01/31 09:51:41;;;;;;;;;2.25;2.00;;;;;10.06;53.18;101953.16;5070619;28;49947;-71
2022/01/31 09:54:06;;;;;;;;;6.25;2.50;;;;;10.07;53.68;101959.31;5070782;28;49564;-72
2022/01/31 09:56:50;;;;;;;;;2.00;1.50;;;;;9.88;53.36;101970.75;5070528;28;49695;-71
2022/01/31 09:59:17;;;;;;;;;4.00;2.50;;;;;9.88;54.78;101955.91;5069975;28;49908;-72
2022/01/31 10:01:51;;;;;;;;;1.50;1.50;;;;;10.00;53.78;101982.66;5070584;27;49726;-71
2022/01/31 10:04:19;;;;;;;;;1.25;0.75;;;;;9.90;53.63;102009.31;5070725;28;49779;-73
2022/01/31 10:06:50;;;;;;;;;3.25;1.50;;;;;9.84;54.00;102005.53;5070063;28;49776;-71
2022/01/31 10:09:17;;;;;;;;;1.75;1.00;;;;;9.89;53.54;102019.75;5070367;28;49900;-72
2022/01/31 10:12:03;;;;;;;;;3.50;0.00;;;;;9.85;52.43;101995.13;5068900;28;49820;-72
2022/01/31 10:17:30;;;;;;;;;4.75;2.25;;;;;9.89;51.63;101964.66;5038255;28;50621;-71
2022/01/31 10:19:58;;;;;;;;;3.00;1.50;;;;;10.21;52.07;101979.13;5069998;28;49682;-72
2022/01/31 10:22:26;;;;;;;;;1.00;0.00;;;;;10.23;51.32;101964.38;5068807;28;49751;-74
2022/01/31 10:24:54;;;;;;;;;2.25;2.25;;;;;9.98;67.31;101986.94;5070257;28;49793;-73
2022/01/31 10:27:29;;;;;;;;;2.25;1.00;;;;;9.74;63.53;101994.63;5070021;28;50485;-74
2022/01/31 10:30:07;;;;;;;;;2.75;1.75;;;;;9.35;63.80;101975.41;5069472;28;49700;-74
2022/01/31 10:32:36;;;;;;;;;3.75;2.00;;;;;9.37;65.44;102015.72;5070105;28;49791;-73
2022/01/31 10:35:06;;;;;;;;;1.50;0.00;;;;;8.96;64.44;101948.28;5068653;28;49916;-73
2022/01/31 10:37:34;;;;;;;;;1.00;0.75;;;;;9.27;63.57;102018.75;5069712;27;49770;-73
2022/01/31 10:54:13;;;;;;;;;6.00;2.00;;;;;9.39;59.17;102042.00;5068941;28;49723;-73
2022/01/31 10:56:48;;;;;;;;;3.00;2.00;;;;;9.22;60.84;102021.97;5073276;27;49915;-74
2022/01/31 10:59:16;;;;;;;;;2.50;2.25;;;;;9.44;59.96;102024.72;5071250;28;49809;-73
2022/01/31 11:01:45;;;;;;;;;2.00;2.00;;;;;9.60;58.12;102029.84;5072852;27;49729;-73
2022/01/31 11:04:14;;;;;;;;;1.00;1.00;;;;;9.54;58.14;102020.81;5071438;28;49086;-73
2022/01/31 11:06:43;;;;;;;;;6.00;4.00;;;;;9.16;57.60;101918.66;5072838;28;49962;-75
2022/01/31 11:09:12;;;;;;;;;7.00;6.25;;;;;9.36;56.83;101965.81;5072602;28;51854;-72
2022/01/31 11:11:39;;;;;;;;;7.50;4.75;;;;;9.26;56.30;101963.63;5071331;28;49822;-72
2022/01/31 11:14:07;;;;;;;;;2.75;2.00;;;;;9.45;55.88;101985.47;5072708;27;49735;-73
2022/01/31 11:16:33;;;;;;;;;4.50;3.25;;;;;9.78;57.44;102014.03;5071311;28;49716;-74
2022/01/31 11:19:02;;;;;;;;;4.25;2.50;;;;;9.57;54.79;101984.25;5072609;27;49767;-74
2022/01/31 11:21:32;;;;;;;;;2.25;2.25;;;;;9.13;55.25;101910.69;5070873;28;50077;-73
2022/01/31 11:24:02;;;;;;;;;2.25;2.25;;;;;9.44;58.28;101974.94;5072559;28;50111;-73
2022/01/31 11:26:39;;;;;;;;;2.00;1.00;;;;;9.69;58.04;102039.84;5055181;28;50017;-73
2022/01/31 11:29:07;;;;;;;;;2.00;2.00;;;;;9.69;59.35;102047.72;5065564;28;50553;-76
2022/01/31 11:31:38;;;;;;;;;3.50;1.50;;;;;9.52;59.08;101994.53;5072351;28;49794;-72
2022/01/31 11:34:05;;;;;;;;;3.00;2.00;;;;;9.76;60.22;102031.44;5072469;28;49698;-78
2022/01/31 11:36:34;;;;;;;;;0.00;0.00;;;;;9.72;58.01;102045.22;5072647;28;49895;-74
2022/01/31 11:39:00;;;;;;;;;2.00;1.00;;;;;9.71;58.50;102023.34;5072201;28;50856;-73
2022/01/31 11:41:26;;;;;;;;;2.75;2.00;;;;;9.46;58.77;101968.06;5072687;28;49649;-72
2022/01/31 11:43:57;;;;;;;;;0.25;0.25;;;;;9.23;57.29;101911.09;5072531;28;49810;-71
2022/01/31 11:46:24;;;;;;;;;1.00;0.50;;;;;9.96;57.02;102051.56;5066262;28;49856;-73
2022/01/31 11:48:54;;;;;;;;;4.00;2.75;;;;;9.77;57.04;102059.44;5070978;28;52258;-72
2022/01/31 11:51:21;;;;;;;;;1.00;1.00;;;;;8.13;67.88;101892.84;5105449;27;49850;-78
2022/01/31 11:53:46;;;;;;;;;1.50;1.00;;;;;7.68;74.69;101942.00;5070384;28;50222;-78
2022/01/31 11:56:22;;;;;;;;;5.50;3.25;;;;;7.92;74.04;102020.81;5105290;27;49623;-72